Estación de Tranapuente INIA
Ultimos registro cada 15 minutos 25
| N° | Estación | Fecha / Hora | Temperatura | Humedad | Lluvia | Velocidad | Dirección | Radiación | Presion |
| 25 | Tranapuente INIA | 08-05-2026 06:00 | 11,4 | 98,6 | 0,2 | 0 | 310 | 1 | 1010 |
| 24 | Tranapuente INIA | 08-05-2026 05:45 | 11,4 | 98,3 | 0,3 | 0,2 | 282 | 1 | 1010 |
| 23 | Tranapuente INIA | 08-05-2026 05:30 | 11,4 | 97,8 | 0,1 | 0,8 | 293 | 1 | 1010 |
| 22 | Tranapuente INIA | 08-05-2026 05:15 | 11,3 | 97,2 | 0,2 | 2,1 | 316 | 1 | 1010 |
| 21 | Tranapuente INIA | 08-05-2026 05:00 | 11,1 | 97,9 | 0,7 | 1,9 | 345 | 0 | 1010 |
| 20 | Tranapuente INIA | 08-05-2026 04:45 | 11,3 | 96,1 | 0,1 | 2,4 | 6 | 1 | 1010 |
| 19 | Tranapuente INIA | 08-05-2026 04:30 | 11,6 | 93,6 | 0 | 2,9 | 1 | 0 | 1010 |
| 18 | Tranapuente INIA | 08-05-2026 04:15 | 11,8 | 90 | 0 | 2,4 | 2 | 0 | 1009 |
| 17 | Tranapuente INIA | 08-05-2026 04:00 | 11,6 | 88,9 | 0 | 1 | 19 | 0 | 1010 |
| 16 | Tranapuente INIA | 08-05-2026 03:45 | 11,5 | 84,3 | 0 | 1,8 | 35 | 0 | 1010 |
| 15 | Tranapuente INIA | 08-05-2026 03:30 | 11,4 | 84,2 | 0 | 2,5 | 24 | 0 | 1010 |
| 14 | Tranapuente INIA | 08-05-2026 03:15 | 11,4 | 82,5 | 0 | 2,1 | 26 | 0 | 1010 |
| 13 | Tranapuente INIA | 08-05-2026 03:00 | 11,2 | 82,5 | 0 | 2,1 | 39 | 0 | 1010 |
| 12 | Tranapuente INIA | 08-05-2026 02:45 | 11,1 | 84,7 | 0 | 1,4 | 20 | 0 | 1010 |
| 11 | Tranapuente INIA | 08-05-2026 02:30 | 11 | 84,3 | 0 | 0,2 | 139 | 0 | 1010 |
| 10 | Tranapuente INIA | 08-05-2026 02:15 | 10,8 | 82,3 | 0 | 0,1 | 93 | 0 | 1010 |
| 9 | Tranapuente INIA | 08-05-2026 02:00 | 10,8 | 83,3 | 0 | 0,4 | 85 | 0 | 1011 |
| 8 | Tranapuente INIA | 08-05-2026 01:45 | 10,7 | 81,7 | 0 | 0,2 | 74 | 0 | 1011 |
| 7 | Tranapuente INIA | 08-05-2026 01:30 | 10,5 | 82,1 | 0 | 0 | 0 | 0 | 1012 |
| 6 | Tranapuente INIA | 08-05-2026 01:15 | 10,5 | 84,8 | 0 | 0,4 | 4 | 0 | 1012 |
| 5 | Tranapuente INIA | 08-05-2026 01:00 | 10,1 | 81,3 | 0 | 0,6 | 35 | 0 | 1012 |
| 4 | Tranapuente INIA | 08-05-2026 00:45 | 9,2 | 89,1 | 0 | 0 | 0 | 0 | 1012 |
| 3 | Tranapuente INIA | 08-05-2026 00:30 | 9 | 93,2 | 0 | 0 | 0 | 0 | 1012 |
| 2 | Tranapuente INIA | 08-05-2026 00:15 | 8,9 | 92,6 | 0 | 0 | 205 | 0 | 1013 |
| 1 | Tranapuente INIA | 08-05-2026 00:00 | 8,9 | 93 | 0 | 0 | 0 | 0 | 1013 |